sensor_id;sensor_type;location;lat;lon;timestamp;pressure;altitude;pressure_sealevel;temperature;humidity
8575;BME280;4325;42.520;27.448;2023-12-29T00:00:50;101728.31;;;6.82;100.00
8575;BME280;4325;42.520;27.448;2023-12-29T00:03:17;101736.50;;;6.82;100.00
8575;BME280;4325;42.520;27.448;2023-12-29T00:05:44;101733.78;;;6.82;100.00
8575;BME280;4325;42.520;27.448;2023-12-29T00:08:11;101737.78;;;6.79;100.00
8575;BME280;4325;42.520;27.448;2023-12-29T00:10:38;101744.50;;;6.77;100.00
8575;BME280;4325;42.520;27.448;2023-12-29T00:13:05;101732.66;;;6.64;100.00
8575;BME280;4325;42.520;27.448;2023-12-29T00:15:32;101728.72;;;6.60;100.00
8575;BME280;4325;42.520;27.448;2023-12-29T00:18:01;101736.53;;;6.50;100.00
8575;BME280;4325;42.520;27.448;2023-12-29T00:20:28;101726.56;;;6.44;100.00
8575;BME280;4325;42.520;27.448;2023-12-29T00:22:55;101732.69;;;6.33;100.00
8575;BME280;4325;42.520;27.448;2023-12-29T00:25:24;101729.19;;;6.26;100.00
8575;BME280;4325;42.520;27.448;2023-12-29T00:27:51;101722.53;;;6.22;100.00
8575;BME280;4325;42.520;27.448;2023-12-29T00:30:18;101717.56;;;6.13;100.00
8575;BME280;4325;42.520;27.448;2023-12-29T00:32:46;101722.63;;;6.03;100.00
8575;BME280;4325;42.520;27.448;2023-12-29T00:35:14;101718.28;;;5.95;100.00
8575;BME280;4325;42.520;27.448;2023-12-29T00:37:41;101722.50;;;5.91;100.00
8575;BME280;4325;42.520;27.448;2023-12-29T00:40:09;101720.22;;;5.88;100.00
8575;BME280;4325;42.520;27.448;2023-12-29T00:42:36;101720.44;;;5.86;100.00
8575;BME280;4325;42.520;27.448;2023-12-29T00:45:04;101720.22;;;5.88;100.00
8575;BME280;4325;42.520;27.448;2023-12-29T00:47:31;101716.84;;;5.92;100.00
8575;BME280;4325;42.520;27.448;2023-12-29T00:49:59;101719.31;;;5.94;100.00
8575;BME280;4325;42.520;27.448;2023-12-29T00:52:28;101721.00;;;5.95;100.00
8575;BME280;4325;42.520;27.448;2023-12-29T00:54:55;101715.56;;;5.95;100.00
8575;BME280;4325;42.520;27.448;2023-12-29T00:57:22;101714.06;;;5.99;100.00
8575;BME280;4325;42.520;27.448;2023-12-29T00:59:49;101708.44;;;6.01;100.00
8575;BME280;4325;42.520;27.448;2023-12-29T01:02:16;101714.06;;;6.06;100.00
8575;BME280;4325;42.520;27.448;2023-12-29T01:04:43;101709.41;;;6.13;100.00
8575;BME280;4325;42.520;27.448;2023-12-29T01:07:10;101704.97;;;6.18;100.00
8575;BME280;4325;42.520;27.448;2023-12-29T01:09:39;101706.22;;;6.22;100.00
8575;BME280;4325;42.520;27.448;2023-12-29T01:12:06;101718.91;;;6.28;100.00
8575;BME280;4325;42.520;27.448;2023-12-29T01:14:33;101709.47;;;6.37;100.00
8575;BME280;4325;42.520;27.448;2023-12-29T01:17:00;101710.22;;;6.44;100.00
8575;BME280;4325;42.520;27.448;2023-12-29T01:19:28;101712.06;;;6.50;100.00
8575;BME280;4325;42.520;27.448;2023-12-29T01:21:55;101708.91;;;6.53;100.00
8575;BME280;4325;42.520;27.448;2023-12-29T01:24:22;101700.13;;;6.51;100.00
8575;BME280;4325;42.520;27.448;2023-12-29T01:26:50;101697.19;;;6.53;100.00
8575;BME280;4325;42.520;27.448;2023-12-29T01:29:17;101704.50;;;6.52;100.00
8575;BME280;4325;42.520;27.448;2023-12-29T01:31:44;101704.06;;;6.55;100.00
8575;BME280;4325;42.520;27.448;2023-12-29T01:34:11;101701.78;;;6.52;100.00
8575;BME280;4325;42.520;27.448;2023-12-29T01:36:38;101708.50;;;6.50;100.00
8575;BME280;4325;42.520;27.448;2023-12-29T01:39:05;101708.13;;;6.46;100.00
8575;BME280;4325;42.520;27.448;2023-12-29T01:41:32;101702.50;;;6.41;100.00
8575;BME280;4325;42.520;27.448;2023-12-29T01:44:19;101695.38;;;6.40;100.00
8575;BME280;4325;42.520;27.448;2023-12-29T01:46:48;101697.75;;;6.37;100.00
8575;BME280;4325;42.520;27.448;2023-12-29T01:49:16;101689.47;;;6.25;100.00
8575;BME280;4325;42.520;27.448;2023-12-29T01:51:44;101693.53;;;6.10;100.00
8575;BME280;4325;42.520;27.448;2023-12-29T01:54:12;101691.03;;;6.08;100.00
8575;BME280;4325;42.520;27.448;2023-12-29T01:56:40;101682.09;;;6.01;100.00
8575;BME280;4325;42.520;27.448;2023-12-29T01:59:08;101679.19;;;5.96;100.00
8575;BME280;4325;42.520;27.448;2023-12-29T02:01:38;101683.00;;;5.88;100.00
8575;BME280;4325;42.520;27.448;2023-12-29T02:04:05;101680.09;;;5.77;100.00
8575;BME280;4325;42.520;27.448;2023-12-29T02:06:34;101669.13;;;5.59;100.00
8575;BME280;4325;42.520;27.448;2023-12-29T02:09:01;101668.78;;;5.42;100.00
8575;BME280;4325;42.520;27.448;2023-12-29T02:11:30;101670.03;;;5.40;100.00
8575;BME280;4325;42.520;27.448;2023-12-29T02:13:57;101667.75;;;5.37;100.00
8575;BME280;4325;42.520;27.448;2023-12-29T02:16:33;101662.31;;;5.37;100.00
8575;BME280;4325;42.520;27.448;2023-12-29T02:19:08;101668.97;;;5.41;100.00
8575;BME280;4325;42.520;27.448;2023-12-29T02:21:40;101659.56;;;5.43;100.00
8575;BME280;4325;42.520;27.448;2023-12-29T02:24:07;101661.63;;;5.48;100.00
8575;BME280;4325;42.520;27.448;2023-12-29T02:26:36;101653.88;;;5.51;100.00
8575;BME280;4325;42.520;27.448;2023-12-29T02:29:05;101654.13;;;5.50;100.00
8575;BME280;4325;42.520;27.448;2023-12-29T02:31:38;101652.44;;;5.49;100.00
8575;BME280;4325;42.520;27.448;2023-12-29T02:34:08;101652.25;;;5.44;100.00
8575;BME280;4325;42.520;27.448;2023-12-29T02:36:37;101653.13;;;5.38;100.00
8575;BME280;4325;42.520;27.448;2023-12-29T02:39:09;101654.16;;;5.37;100.00
8575;BME280;4325;42.520;27.448;2023-12-29T02:41:38;101651.47;;;5.30;100.00
8575;BME280;4325;42.520;27.448;2023-12-29T02:44:05;101647.94;;;5.29;100.00
8575;BME280;4325;42.520;27.448;2023-12-29T02:46:32;101641.88;;;5.27;100.00
8575;BME280;4325;42.520;27.448;2023-12-29T02:48:59;101642.72;;;5.28;100.00
8575;BME280;4325;42.520;27.448;2023-12-29T02:51:26;101643.13;;;5.31;100.00
8575;BME280;4325;42.520;27.448;2023-12-29T02:53:53;101627.66;;;5.32;100.00
8575;BME280;4325;42.520;27.448;2023-12-29T02:56:20;101639.75;;;5.36;100.00
8575;BME280;4325;42.520;27.448;2023-12-29T02:58:49;101633.91;;;5.39;100.00
8575;BME280;4325;42.520;27.448;2023-12-29T03:01:17;101640.34;;;5.45;100.00
8575;BME280;4325;42.520;27.448;2023-12-29T03:03:44;101634.31;;;5.43;100.00
8575;BME280;4325;42.520;27.448;2023-12-29T03:06:11;101634.72;;;5.40;100.00
8575;BME280;4325;42.520;27.448;2023-12-29T03:08:38;101628.88;;;5.36;100.00
8575;BME280;4325;42.520;27.448;2023-12-29T03:11:06;101619.28;;;5.33;100.00
8575;BME280;4325;42.520;27.448;2023-12-29T03:13:33;101630.09;;;5.47;100.00
8575;BME280;4325;42.520;27.448;2023-12-29T03:16:01;101633.19;;;5.57;100.00
8575;BME280;4325;42.520;27.448;2023-12-29T03:18:28;101624.56;;;5.66;100.00
8575;BME280;4325;42.520;27.448;2023-12-29T03:20:55;101614.25;;;5.75;100.00
8575;BME280;4325;42.520;27.448;2023-12-29T03:23:22;101620.69;;;5.87;100.00
8575;BME280;4325;42.520;27.448;2023-12-29T03:25:49;101621.03;;;5.97;100.00
8575;BME280;4325;42.520;27.448;2023-12-29T03:28:16;101613.97;;;5.96;100.00
8575;BME280;4325;42.520;27.448;2023-12-29T03:30:43;101612.28;;;5.95;100.00
8575;BME280;4325;42.520;27.448;2023-12-29T03:33:12;101608.53;;;5.96;100.00
8575;BME280;4325;42.520;27.448;2023-12-29T03:35:39;101607.88;;;5.94;100.00
8575;BME280;4325;42.520;27.448;2023-12-29T03:38:06;101603.53;;;5.93;100.00
8575;BME280;4325;42.520;27.448;2023-12-29T03:40:33;101603.97;;;5.90;100.00
8575;BME280;4325;42.520;27.448;2023-12-29T03:43:00;101609.81;;;5.87;100.00
8575;BME280;4325;42.520;27.448;2023-12-29T03:45:27;101613.59;;;5.86;100.00
8575;BME280;4325;42.520;27.448;2023-12-29T03:47:54;101612.31;;;5.82;100.00
8575;BME280;4325;42.520;27.448;2023-12-29T03:50:23;101620.72;;;5.80;100.00
8575;BME280;4325;42.520;27.448;2023-12-29T03:52:50;101619.09;;;5.73;100.00
8575;BME280;4325;42.520;27.448;2023-12-29T03:55:17;101630.38;;;5.76;100.00
8575;BME280;4325;42.520;27.448;2023-12-29T03:57:44;101620.94;;;5.79;100.00
8575;BME280;4325;42.520;27.448;2023-12-29T04:00:12;101618.84;;;5.81;100.00
8575;BME280;4325;42.520;27.448;2023-12-29T04:02:40;101621.19;;;5.71;100.00
8575;BME280;4325;42.520;27.448;2023-12-29T04:05:08;101623.69;;;5.72;100.00
8575;BME280;4325;42.520;27.448;2023-12-29T04:07:39;101628.06;;;5.73;100.00
8575;BME280;4325;42.520;27.448;2023-12-29T04:10:06;101632.06;;;5.71;100.00
8575;BME280;4325;42.520;27.448;2023-12-29T04:12:34;101636.03;;;5.68;100.00
8575;BME280;4325;42.520;27.448;2023-12-29T04:15:01;101632.97;;;5.58;100.00
8575;BME280;4325;42.520;27.448;2023-12-29T04:17:28;101631.94;;;5.53;100.00
8575;BME280;4325;42.520;27.448;2023-12-29T04:19:55;101625.13;;;5.37;100.00
8575;BME280;4325;42.520;27.448;2023-12-29T04:22:22;101633.13;;;5.25;100.00
8575;BME280;4325;42.520;27.448;2023-12-29T04:24:51;101626.88;;;5.18;100.00
8575;BME280;4325;42.520;27.448;2023-12-29T04:27:18;101616.00;;;5.18;100.00
8575;BME280;4325;42.520;27.448;2023-12-29T04:29:45;101617.91;;;5.11;100.00
8575;BME280;4325;42.520;27.448;2023-12-29T04:32:12;101630.88;;;5.09;100.00
8575;BME280;4325;42.520;27.448;2023-12-29T04:34:39;101629.41;;;5.07;100.00
8575;BME280;4325;42.520;27.448;2023-12-29T04:37:06;101637.16;;;5.03;100.00
8575;BME280;4325;42.520;27.448;2023-12-29T04:39:33;101642.41;;;4.98;100.00
8575;BME280;4325;42.520;27.448;2023-12-29T04:42:02;101638.00;;;4.97;100.00
8575;BME280;4325;42.520;27.448;2023-12-29T04:44:29;101632.81;;;4.96;100.00
8575;BME280;4325;42.520;27.448;2023-12-29T04:46:56;101624.41;;;5.04;100.00
8575;BME280;4325;42.520;27.448;2023-12-29T04:49:23;101619.59;;;5.12;100.00
8575;BME280;4325;42.520;27.448;2023-12-29T04:51:50;101619.78;;;5.17;100.00
8575;BME280;4325;42.520;27.448;2023-12-29T04:54:18;101625.00;;;5.19;100.00
8575;BME280;4325;42.520;27.448;2023-12-29T04:56:45;101628.72;;;5.24;100.00
8575;BME280;4325;42.520;27.448;2023-12-29T04:59:13;101615.97;;;5.31;100.00
8575;BME280;4325;42.520;27.448;2023-12-29T05:01:40;101621.16;;;5.33;100.00
8575;BME280;4325;42.520;27.448;2023-12-29T05:04:07;101626.44;;;5.21;100.00
8575;BME280;4325;42.520;27.448;2023-12-29T05:06:34;101630.47;;;4.99;100.00
8575;BME280;4325;42.520;27.448;2023-12-29T05:09:02;101631.56;;;4.85;100.00
8575;BME280;4325;42.520;27.448;2023-12-29T05:11:30;101628.47;;;4.68;100.00
8575;BME280;4325;42.520;27.448;2023-12-29T05:13:58;101630.34;;;4.68;100.00
8575;BME280;4325;42.520;27.448;2023-12-29T05:16:26;101625.34;;;4.65;100.00
8575;BME280;4325;42.520;27.448;2023-12-29T05:18:53;101634.94;;;4.61;100.00
8575;BME280;4325;42.520;27.448;2023-12-29T05:21:20;101623.25;;;4.60;100.00
8575;BME280;4325;42.520;27.448;2023-12-29T05:23:49;101629.94;;;4.64;100.00
8575;BME280;4325;42.520;27.448;2023-12-29T05:26:17;101623.28;;;4.67;100.00
8575;BME280;4325;42.520;27.448;2023-12-29T05:28:44;101620.13;;;4.77;100.00
8575;BME280;4325;42.520;27.448;2023-12-29T05:31:11;101622.81;;;4.83;100.00
8575;BME280;4325;42.520;27.448;2023-12-29T05:33:39;101617.34;;;4.90;100.00
8575;BME280;4325;42.520;27.448;2023-12-29T05:36:08;101619.00;;;4.97;100.00
8575;BME280;4325;42.520;27.448;2023-12-29T05:38:35;101620.69;;;4.98;100.00
8575;BME280;4325;42.520;27.448;2023-12-29T05:41:03;101619.66;;;4.93;100.00
8575;BME280;4325;42.520;27.448;2023-12-29T05:43:32;101611.09;;;4.89;100.00
8575;BME280;4325;42.520;27.448;2023-12-29T05:45:59;101621.13;;;4.89;100.00
8575;BME280;4325;42.520;27.448;2023-12-29T05:48:26;101616.28;;;4.97;100.00
8575;BME280;4325;42.520;27.448;2023-12-29T05:50:55;101618.81;;;4.99;100.00
8575;BME280;4325;42.520;27.448;2023-12-29T05:53:22;101608.53;;;5.07;100.00
8575;BME280;4325;42.520;27.448;2023-12-29T05:55:49;101606.25;;;5.11;100.00
8575;BME280;4325;42.520;27.448;2023-12-29T05:58:16;101611.41;;;5.19;100.00
8575;BME280;4325;42.520;27.448;2023-12-29T06:00:43;101613.47;;;5.30;100.00
8575;BME280;4325;42.520;27.448;2023-12-29T06:03:10;101620.03;;;5.54;100.00
8575;BME280;4325;42.520;27.448;2023-12-29T06:05:37;101617.31;;;5.91;100.00
8575;BME280;4325;42.520;27.448;2023-12-29T06:08:06;101631.44;;;6.56;100.00
8575;BME280;4325;42.520;27.448;2023-12-29T06:10:35;101629.84;;;7.27;100.00
8575;BME280;4325;42.520;27.448;2023-12-29T06:13:02;101621.47;;;7.59;100.00
8575;BME280;4325;42.520;27.448;2023-12-29T06:15:29;101630.25;;;7.90;100.00
8575;BME280;4325;42.520;27.448;2023-12-29T06:17:56;101626.66;;;8.20;100.00
8575;BME280;4325;42.520;27.448;2023-12-29T06:20:24;101633.38;;;8.70;100.00
8575;BME280;4325;42.520;27.448;2023-12-29T06:22:51;101643.09;;;9.12;100.00
8575;BME280;4325;42.520;27.448;2023-12-29T06:25:20;101638.34;;;9.48;100.00
8575;BME280;4325;42.520;27.448;2023-12-29T06:27:47;101641.19;;;9.81;100.00
8575;BME280;4325;42.520;27.448;2023-12-29T06:30:14;101649.03;;;10.17;99.05
8575;BME280;4325;42.520;27.448;2023-12-29T06:32:41;101663.31;;;10.52;93.24
8575;BME280;4325;42.520;27.448;2023-12-29T06:35:08;101659.47;;;10.87;88.85
8575;BME280;4325;42.520;27.448;2023-12-29T06:37:37;101665.75;;;11.04;84.79
8575;BME280;4325;42.520;27.448;2023-12-29T06:40:05;101662.59;;;11.12;83.48
8575;BME280;4325;42.520;27.448;2023-12-29T06:42:34;101671.00;;;11.27;81.84
8575;BME280;4325;42.520;27.448;2023-12-29T06:45:02;101657.25;;;11.65;79.16
8575;BME280;4325;42.520;27.448;2023-12-29T06:47:29;101663.84;;;12.13;73.48
8575;BME280;4325;42.520;27.448;2023-12-29T06:49:56;101666.69;;;12.54;70.35
8575;BME280;4325;42.520;27.448;2023-12-29T06:52:23;101665.41;;;13.04;66.68
8575;BME280;4325;42.520;27.448;2023-12-29T06:54:51;101657.75;;;13.53;63.07
8575;BME280;4325;42.520;27.448;2023-12-29T06:57:18;101667.63;;;14.31;59.39
8575;BME280;4325;42.520;27.448;2023-12-29T06:59:46;101661.56;;;14.64;56.49
8575;BME280;4325;42.520;27.448;2023-12-29T07:02:13;101671.47;;;15.84;53.97
8575;BME280;4325;42.520;27.448;2023-12-29T07:04:41;101670.16;;;16.93;50.23
8575;BME280;4325;42.520;27.448;2023-12-29T07:07:09;101666.78;;;17.25;47.15
8575;BME280;4325;42.520;27.448;2023-12-29T07:09:38;101671.09;;;17.60;46.11
8575;BME280;4325;42.520;27.448;2023-12-29T07:12:07;101667.09;;;17.90;44.95
8575;BME280;4325;42.520;27.448;2023-12-29T07:14:34;101668.25;;;17.89;44.72
8575;BME280;4325;42.520;27.448;2023-12-29T07:17:03;101660.50;;;17.14;45.62
8575;BME280;4325;42.520;27.448;2023-12-29T07:19:30;101655.22;;;17.42;45.94
8575;BME280;4325;42.520;27.448;2023-12-29T07:22:03;101652.09;;;18.65;44.09
8575;BME280;4325;42.520;27.448;2023-12-29T07:24:31;101657.75;;;18.41;44.05
8575;BME280;4325;42.520;27.448;2023-12-29T07:26:58;101653.53;;;18.44;43.80
8575;BME280;4325;42.520;27.448;2023-12-29T07:29:26;101658.81;;;19.10;43.51
8575;BME280;4325;42.520;27.448;2023-12-29T07:31:53;101651.44;;;18.87;42.97
8575;BME280;4325;42.520;27.448;2023-12-29T07:34:21;101663.44;;;19.83;42.67
8575;BME280;4325;42.520;27.448;2023-12-29T07:36:48;101656.25;;;20.31;39.51
8575;BME280;4325;42.520;27.448;2023-12-29T07:39:19;101657.91;;;20.32;39.24
8575;BME280;4325;42.520;27.448;2023-12-29T07:41:46;101656.56;;;20.52;38.38
8575;BME280;4325;42.520;27.448;2023-12-29T07:44:14;101659.09;;;20.04;38.41
8575;BME280;4325;42.520;27.448;2023-12-29T07:46:42;101656.47;;;20.34;38.69
8575;BME280;4325;42.520;27.448;2023-12-29T07:49:09;101663.97;;;19.85;38.86
8575;BME280;4325;42.520;27.448;2023-12-29T07:51:40;101662.69;;;19.23;39.30
8575;BME280;4325;42.520;27.448;2023-12-29T07:54:08;101659.81;;;19.00;40.31
8575;BME280;4325;42.520;27.448;2023-12-29T07:56:35;101669.31;;;19.81;39.03
8575;BME280;4325;42.520;27.448;2023-12-29T07:59:03;101661.72;;;19.59;38.87
8575;BME280;4325;42.520;27.448;2023-12-29T08:01:32;101661.50;;;18.83;40.44
8575;BME280;4325;42.520;27.448;2023-12-29T08:03:59;101666.41;;;19.18;40.30
8575;BME280;4325;42.520;27.448;2023-12-29T08:06:26;101674.81;;;19.59;39.17
8575;BME280;4325;42.520;27.448;2023-12-29T08:08:55;101672.72;;;20.85;37.85
8575;BME280;4325;42.520;27.448;2023-12-29T08:11:22;101678.88;;;19.89;38.42
8575;BME280;4325;42.520;27.448;2023-12-29T08:13:49;101684.34;;;19.66;39.38
8575;BME280;4325;42.520;27.448;2023-12-29T08:16:16;101690.78;;;20.74;37.66
8575;BME280;4325;42.520;27.448;2023-12-29T08:18:44;101684.72;;;21.56;36.26
8575;BME280;4325;42.520;27.448;2023-12-29T08:21:16;101696.38;;;22.23;35.42
8575;BME280;4325;42.520;27.448;2023-12-29T08:23:45;101674.06;;;22.23;35.08
8575;BME280;4325;42.520;27.448;2023-12-29T08:26:14;101686.41;;;22.65;34.36
8575;BME280;4325;42.520;27.448;2023-12-29T08:28:41;101688.84;;;22.58;34.51
8575;BME280;4325;42.520;27.448;2023-12-29T08:31:08;101683.69;;;21.13;36.16
8575;BME280;4325;42.520;27.448;2023-12-29T08:33:35;101673.84;;;21.85;35.62
8575;BME280;4325;42.520;27.448;2023-12-29T08:36:03;101678.16;;;22.00;35.91
8575;BME280;4325;42.520;27.448;2023-12-29T08:38:30;101676.31;;;22.98;34.44
8575;BME280;4325;42.520;27.448;2023-12-29T08:40:57;101671.59;;;24.03;32.45
8575;BME280;4325;42.520;27.448;2023-12-29T08:43:26;101671.78;;;25.02;31.90
8575;BME280;4325;42.520;27.448;2023-12-29T08:45:53;101671.44;;;24.00;32.45
8575;BME280;4325;42.520;27.448;2023-12-29T08:48:20;101667.75;;;24.90;31.69
8575;BME280;4325;42.520;27.448;2023-12-29T08:50:46;101667.59;;;25.20;30.77
8575;BME280;4325;42.520;27.448;2023-12-29T08:53:13;101665.44;;;24.18;31.43
8575;BME280;4325;42.520;27.448;2023-12-29T08:55:41;101650.25;;;23.40;32.80
8575;BME280;4325;42.520;27.448;2023-12-29T08:58:08;101654.56;;;23.21;32.89
8575;BME280;4325;42.520;27.448;2023-12-29T09:00:36;101656.66;;;23.99;31.68
8575;BME280;4325;42.520;27.448;2023-12-29T09:03:04;101656.22;;;25.61;30.00
8575;BME280;4325;42.520;27.448;2023-12-29T09:05:31;101658.91;;;25.70;29.34
8575;BME280;4325;42.520;27.448;2023-12-29T09:07:58;101654.56;;;25.96;29.42
8575;BME280;4325;42.520;27.448;2023-12-29T09:10:25;101657.38;;;25.72;29.50
8575;BME280;4325;42.520;27.448;2023-12-29T09:12:52;101648.84;;;25.00;30.20
8575;BME280;4325;42.520;27.448;2023-12-29T09:15:20;101637.03;;;23.79;32.03
8575;BME280;4325;42.520;27.448;2023-12-29T09:17:48;101653.22;;;24.23;31.97
8575;BME280;4325;42.520;27.448;2023-12-29T09:20:16;101636.66;;;23.59;33.16
8575;BME280;4325;42.520;27.448;2023-12-29T09:22:43;101629.63;;;24.03;31.92
8575;BME280;4325;42.520;27.448;2023-12-29T09:25:10;101637.63;;;24.87;31.32
8575;BME280;4325;42.520;27.448;2023-12-29T09:27:38;101641.47;;;25.88;30.11
8575;BME280;4325;42.520;27.448;2023-12-29T09:30:06;101636.56;;;26.65;29.12
8575;BME280;4325;42.520;27.448;2023-12-29T09:32:33;101631.06;;;27.59;28.33
8575;BME280;4325;42.520;27.448;2023-12-29T09:35:02;101620.06;;;29.71;26.69
8575;BME280;4325;42.520;27.448;2023-12-29T09:37:30;101616.66;;;31.14;24.75
8575;BME280;4325;42.520;27.448;2023-12-29T09:39:57;101608.63;;;30.83;24.24
8575;BME280;4325;42.520;27.448;2023-12-29T09:42:24;101612.31;;;31.78;23.76
8575;BME280;4325;42.520;27.448;2023-12-29T09:44:55;101603.97;;;31.01;24.30
8575;BME280;4325;42.520;27.448;2023-12-29T09:47:23;101600.50;;;30.78;23.84
8575;BME280;4325;42.520;27.448;2023-12-29T09:49:52;101600.59;;;30.89;23.99
8575;BME280;4325;42.520;27.448;2023-12-29T09:52:22;101593.97;;;30.70;24.32
8575;BME280;4325;42.520;27.448;2023-12-29T09:54:51;101601.69;;;32.33;22.94
8575;BME280;4325;42.520;27.448;2023-12-29T09:57:18;101588.22;;;32.09;22.46
8575;BME280;4325;42.520;27.448;2023-12-29T09:59:48;101595.09;;;32.08;22.63
8575;BME280;4325;42.520;27.448;2023-12-29T10:02:17;101596.84;;;32.37;22.95
8575;BME280;4325;42.520;27.448;2023-12-29T10:04:44;101602.75;;;33.04;21.88
8575;BME280;4325;42.520;27.448;2023-12-29T10:07:15;101601.94;;;33.39;21.68
8575;BME280;4325;42.520;27.448;2023-12-29T10:09:45;101598.59;;;32.74;22.23
8575;BME280;4325;42.520;27.448;2023-12-29T10:12:14;101594.22;;;33.15;21.58
8575;BME280;4325;42.520;27.448;2023-12-29T10:14:46;101597.66;;;34.32;20.88
8575;BME280;4325;42.520;27.448;2023-12-29T10:17:21;101592.56;;;33.84;21.10
8575;BME280;4325;42.520;27.448;2023-12-29T10:19:58;101573.94;;;33.41;21.13
8575;BME280;4325;42.520;27.448;2023-12-29T10:22:36;101575.53;;;33.00;21.60
8575;BME280;4325;42.520;27.448;2023-12-29T10:25:09;101568.25;;;33.20;21.58
8575;BME280;4325;42.520;27.448;2023-12-29T10:27:36;101560.50;;;33.73;21.27
8575;BME280;4325;42.520;27.448;2023-12-29T10:30:06;101562.19;;;34.65;20.53
8575;BME280;4325;42.520;27.448;2023-12-29T10:32:36;101556.63;;;34.98;19.81
8575;BME280;4325;42.520;27.448;2023-12-29T10:35:10;101559.88;;;35.86;19.60
8575;BME280;4325;42.520;27.448;2023-12-29T10:37:37;101541.97;;;35.51;19.65
8575;BME280;4325;42.520;27.448;2023-12-29T10:40:06;101539.50;;;35.50;19.50
8575;BME280;4325;42.520;27.448;2023-12-29T10:42:34;101536.50;;;36.62;18.80
8575;BME280;4325;42.520;27.448;2023-12-29T10:45:05;101537.66;;;37.84;17.48
8575;BME280;4325;42.520;27.448;2023-12-29T10:47:33;101536.09;;;38.38;17.64
8575;BME280;4325;42.520;27.448;2023-12-29T10:50:01;101534.81;;;37.84;18.01
8575;BME280;4325;42.520;27.448;2023-12-29T10:52:31;101536.59;;;39.49;16.97
8575;BME280;4325;42.520;27.448;2023-12-29T10:55:06;101531.78;;;39.75;16.43
8575;BME280;4325;42.520;27.448;2023-12-29T10:57:35;101521.03;;;39.79;16.37
8575;BME280;4325;42.520;27.448;2023-12-29T11:00:03;101521.47;;;40.19;16.06
8575;BME280;4325;42.520;27.448;2023-12-29T11:02:31;101520.91;;;41.12;15.62
8575;BME280;4325;42.520;27.448;2023-12-29T11:05:03;101514.59;;;41.52;15.34
8575;BME280;4325;42.520;27.448;2023-12-29T11:07:34;101510.50;;;40.80;15.17
8575;BME280;4325;42.520;27.448;2023-12-29T11:10:03;101509.47;;;40.62;15.42
8575;BME280;4325;42.520;27.448;2023-12-29T11:12:32;101510.44;;;40.05;15.88
8575;BME280;4325;42.520;27.448;2023-12-29T11:15:03;101508.91;;;40.54;15.64
8575;BME280;4325;42.520;27.448;2023-12-29T11:17:31;101499.59;;;39.55;15.98
8575;BME280;4325;42.520;27.448;2023-12-29T11:20:00;101500.91;;;38.73;16.67
8575;BME280;4325;42.520;27.448;2023-12-29T11:22:29;101495.91;;;37.66;17.46
8575;BME280;4325;42.520;27.448;2023-12-29T11:24:57;101505.59;;;37.72;17.34
8575;BME280;4325;42.520;27.448;2023-12-29T11:27:28;101494.75;;;36.98;17.59
8575;BME280;4325;42.520;27.448;2023-12-29T11:29:58;101476.06;;;36.13;18.59
8575;BME280;4325;42.520;27.448;2023-12-29T11:32:32;101481.84;;;36.36;18.02
8575;BME280;4325;42.520;27.448;2023-12-29T11:35:12;101483.56;;;37.30;17.25
8575;BME280;4325;42.520;27.448;2023-12-29T11:38:08;101482.34;;;37.08;17.12
8575;BME280;4325;42.520;27.448;2023-12-29T11:40:43;101489.22;;;36.61;17.09
8575;BME280;4325;42.520;27.448;2023-12-29T11:43:15;101482.16;;;36.42;17.26
8575;BME280;4325;42.520;27.448;2023-12-29T11:45:43;101478.06;;;35.49;18.20
8575;BME280;4325;42.520;27.448;2023-12-29T11:48:12;101473.13;;;35.56;18.52
8575;BME280;4325;42.520;27.448;2023-12-29T11:50:40;101471.78;;;35.98;18.25
8575;BME280;4325;42.520;27.448;2023-12-29T11:53:07;101481.34;;;36.68;17.62
8575;BME280;4325;42.520;27.448;2023-12-29T11:55:36;101470.00;;;36.11;17.83
8575;BME280;4325;42.520;27.448;2023-12-29T11:58:05;101479.72;;;35.46;17.79
8575;BME280;4325;42.520;27.448;2023-12-29T12:00:49;101469.69;;;35.72;17.92
8575;BME280;4325;42.520;27.448;2023-12-29T12:03:24;101472.63;;;35.95;18.03
8575;BME280;4325;42.520;27.448;2023-12-29T12:05:52;101467.81;;;35.92;17.95
8575;BME280;4325;42.520;27.448;2023-12-29T12:08:32;101464.91;;;35.62;18.06
8575;BME280;4325;42.520;27.448;2023-12-29T12:11:42;101465.91;;;35.82;18.15
8575;BME280;4325;42.520;27.448;2023-12-29T12:14:10;101463.31;;;35.91;18.29
8575;BME280;4325;42.520;27.448;2023-12-29T12:16:47;101473.97;;;36.17;17.85
8575;BME280;4325;42.520;27.448;2023-12-29T12:19:17;101473.72;;;36.85;17.37
8575;BME280;4325;42.520;27.448;2023-12-29T12:21:47;101476.91;;;36.90;17.25
8575;BME280;4325;42.520;27.448;2023-12-29T12:24:18;101481.59;;;37.04;16.49
8575;BME280;4325;42.520;27.448;2023-12-29T12:26:46;101474.78;;;36.44;17.07
8575;BME280;4325;42.520;27.448;2023-12-29T12:29:14;101471.59;;;36.12;17.20
8575;BME280;4325;42.520;27.448;2023-12-29T12:31:53;101452.88;;;35.81;17.67
8575;BME280;4325;42.520;27.448;2023-12-29T12:34:21;101456.47;;;35.85;17.24
8575;BME280;4325;42.520;27.448;2023-12-29T12:36:49;101456.31;;;34.87;18.34
8575;BME280;4325;42.520;27.448;2023-12-29T12:39:17;101452.31;;;34.23;18.51
8575;BME280;4325;42.520;27.448;2023-12-29T12:41:45;101446.72;;;34.05;18.36
8575;BME280;4325;42.520;27.448;2023-12-29T12:44:13;101447.50;;;34.13;18.75
8575;BME280;4325;42.520;27.448;2023-12-29T12:46:49;101447.94;;;34.08;18.87
8575;BME280;4325;42.520;27.448;2023-12-29T12:49:17;101450.06;;;33.89;19.38
8575;BME280;4325;42.520;27.448;2023-12-29T12:51:46;101441.59;;;33.72;19.86
8575;BME280;4325;42.520;27.448;2023-12-29T12:54:17;101447.94;;;34.08;19.76
8575;BME280;4325;42.520;27.448;2023-12-29T12:56:45;101445.75;;;34.33;19.06
8575;BME280;4325;42.520;27.448;2023-12-29T12:59:13;101434.69;;;34.93;18.75
8575;BME280;4325;42.520;27.448;2023-12-29T13:01:42;101439.69;;;33.30;20.21
8575;BME280;4325;42.520;27.448;2023-12-29T13:04:11;101431.66;;;32.54;21.25
8575;BME280;4325;42.520;27.448;2023-12-29T13:06:40;101429.25;;;32.64;21.20